createdAt,value
2023-02-25T00:01:39.154Z,62.52
2023-02-25T00:04:06.146Z,62.36
2023-02-25T00:06:33.302Z,61.58
2023-02-25T00:09:01.292Z,60.43
2023-02-25T00:11:28.637Z,59.51
2023-02-25T00:13:55.561Z,61.26
2023-02-25T00:16:26.662Z,64.49
2023-02-25T00:18:56.037Z,65.22
2023-02-25T00:21:23.732Z,65.01
2023-02-25T00:23:53.819Z,64.77
2023-02-25T00:26:22.393Z,63.47
2023-02-25T00:28:50.309Z,62.60
2023-02-25T00:31:20.637Z,62.16
2023-02-25T00:33:48.872Z,61.49
2023-02-25T00:36:20.349Z,60.79
2023-02-25T00:38:49.291Z,60.35
2023-02-25T00:41:19.038Z,60.82
2023-02-25T00:43:54.671Z,61.39
2023-02-25T00:46:22.911Z,61.35
2023-02-25T00:48:51.197Z,61.14
2023-02-25T00:51:21.532Z,61.02
2023-02-25T00:53:50.400Z,60.98
2023-02-25T00:56:18.087Z,60.88
2023-02-25T00:58:47.067Z,60.77
2023-02-25T01:01:22.330Z,60.80
2023-02-25T01:03:51.117Z,60.76
2023-02-25T01:06:18.950Z,60.62
2023-02-25T01:08:46.321Z,60.59
2023-02-25T01:11:17.356Z,60.48
2023-02-25T01:13:44.352Z,60.53
2023-02-25T01:16:16.625Z,60.38
2023-02-25T01:18:44.457Z,60.67
2023-02-25T01:21:25.960Z,60.83
2023-02-25T01:23:59.215Z,61.00
2023-02-25T01:26:28.644Z,61.45
2023-02-25T01:28:56.421Z,61.47
2023-02-25T01:31:29.643Z,61.63
2023-02-25T01:34:02.190Z,61.70
2023-02-25T01:36:31.068Z,61.50
2023-02-25T01:38:58.306Z,61.67
2023-02-25T01:41:26.586Z,61.70
2023-02-25T01:44:06.400Z,61.50
2023-02-25T01:46:33.430Z,61.48
2023-02-25T01:49:01.734Z,61.05
2023-02-25T01:51:29.516Z,60.40
2023-02-25T01:53:58.075Z,60.34
2023-02-25T01:56:26.929Z,60.20
2023-02-25T01:58:54.620Z,60.68
2023-02-25T02:01:25.848Z,60.76
2023-02-25T02:03:53.361Z,61.09
2023-02-25T02:06:28.237Z,61.25
2023-02-25T02:08:55.353Z,61.08
2023-02-25T02:11:22.169Z,61.07
2023-02-25T02:13:54.442Z,61.30
2023-02-25T02:17:02.631Z,61.18
2023-02-25T02:19:35.199Z,61.44
2023-02-25T02:22:40.679Z,60.99
2023-02-25T02:25:16.483Z,61.10
2023-02-25T02:28:05.338Z,61.08
2023-02-25T02:30:39.354Z,61.21
2023-02-25T02:33:34.638Z,61.97
2023-02-25T02:36:34.384Z,62.27
2023-02-25T02:39:13.377Z,62.65
2023-02-25T02:42:05.912Z,62.56
2023-02-25T02:44:35.781Z,62.53
2023-02-25T02:47:12.442Z,62.43
2023-02-25T02:49:49.355Z,62.14
2023-02-25T02:52:25.168Z,61.77
2023-02-25T02:55:10.891Z,61.37
2023-02-25T02:57:41.454Z,61.11
2023-02-25T03:00:20.347Z,61.37
2023-02-25T03:03:04.628Z,61.60
2023-02-25T03:05:35.327Z,61.82
2023-02-25T03:08:10.463Z,61.81
2023-02-25T03:10:37.446Z,61.47
2023-02-25T03:13:04.867Z,61.05
2023-02-25T03:20:07.387Z,61.09
2023-02-25T03:22:39.670Z,61.21
2023-02-25T03:25:15.889Z,61.49
2023-02-25T03:27:44.946Z,61.60
2023-02-25T03:30:21.807Z,61.88
2023-02-25T03:32:56.068Z,61.90
2023-02-25T03:35:25.111Z,62.07
2023-02-25T03:37:56.511Z,62.06
2023-02-25T03:40:24.860Z,61.78
2023-02-25T03:42:58.888Z,62.02
2023-02-25T03:45:27.122Z,61.95
2023-02-25T03:47:55.761Z,62.11
2023-02-25T03:50:26.009Z,61.88
2023-02-25T03:52:55.928Z,61.85
2023-02-25T03:55:50.017Z,62.12
2023-02-25T03:58:17.269Z,62.16
2023-02-25T04:00:47.722Z,61.70
2023-02-25T04:03:14.727Z,60.98
2023-02-25T04:05:41.708Z,61.32
2023-02-25T04:08:15.971Z,62.09
2023-02-25T04:10:46.008Z,62.26
2023-02-25T04:13:16.329Z,62.13
2023-02-25T04:15:43.938Z,62.45
2023-02-25T04:18:10.894Z,62.23
2023-02-25T04:20:37.876Z,61.83
2023-02-25T04:23:05.187Z,61.54
2023-02-25T04:25:33.369Z,62.38
2023-02-25T04:28:00.583Z,62.01
2023-02-25T04:30:27.534Z,62.18
2023-02-25T04:32:54.628Z,62.20
2023-02-25T04:35:21.550Z,62.89
2023-02-25T04:37:48.431Z,63.86
2023-02-25T04:40:19.304Z,64.63
2023-02-25T04:42:46.450Z,64.30
2023-02-25T04:45:14.331Z,63.83
2023-02-25T04:47:42.178Z,63.94
2023-02-25T04:50:11.120Z,64.34
2023-02-25T04:52:38.041Z,62.95
2023-02-25T04:57:25.291Z,62.84
2023-02-25T04:59:52.145Z,63.54
2023-02-25T05:02:19.001Z,64.02
2023-02-25T05:04:46.062Z,64.45
2023-02-25T05:07:12.926Z,64.18
2023-02-25T05:09:39.770Z,64.21
2023-02-25T05:12:06.794Z,63.74
2023-02-25T05:14:34.053Z,63.57
2023-02-25T05:17:00.852Z,63.34
2023-02-25T05:19:27.652Z,63.92
2023-02-25T05:21:54.476Z,64.24
2023-02-25T05:24:23.907Z,64.44
2023-02-25T05:26:51.841Z,63.14
2023-02-25T05:29:19.280Z,63.04
2023-02-25T05:31:46.285Z,63.54
2023-02-25T05:34:13.647Z,63.24
2023-02-25T05:36:40.764Z,63.01
2023-02-25T05:39:07.620Z,63.18
2023-02-25T05:41:34.420Z,63.34
2023-02-25T05:44:01.309Z,64.07
2023-02-25T05:46:28.349Z,63.51
2023-02-25T05:48:55.246Z,63.78
2023-02-25T05:51:23.804Z,63.86
2023-02-25T05:53:52.481Z,63.29
2023-02-25T05:56:22.687Z,62.91
2023-02-25T05:58:49.834Z,63.58
2023-02-25T06:01:19.826Z,63.53
2023-02-25T06:03:52.404Z,63.32
2023-02-25T06:06:25.066Z,63.29
2023-02-25T06:08:52.828Z,63.27
2023-02-25T06:11:23.483Z,63.24
2023-02-25T06:13:52.897Z,63.71
2023-02-25T06:16:20.864Z,63.07
2023-02-25T06:18:49.789Z,62.64
2023-02-25T06:21:16.657Z,63.16
2023-02-25T06:23:44.897Z,63.47
2023-02-25T06:26:14.290Z,63.68
2023-02-25T06:28:42.166Z,63.48
2023-02-25T06:31:11.329Z,63.91
2023-02-25T06:33:39.449Z,63.27
2023-02-25T06:36:07.817Z,63.04
2023-02-25T06:38:35.633Z,62.89
2023-02-25T06:41:18.184Z,63.28
2023-02-25T06:43:46.400Z,62.93
2023-02-25T06:46:15.174Z,63.07
2023-02-25T06:48:42.236Z,63.59
2023-02-25T06:51:09.523Z,63.71
2023-02-25T06:53:38.095Z,63.09
2023-02-25T06:56:06.700Z,63.45
2023-02-25T06:58:34.121Z,63.50
2023-02-25T07:01:01.100Z,63.17
2023-02-25T07:03:28.176Z,62.70
2023-02-25T07:05:55.091Z,62.38
2023-02-25T07:08:21.993Z,62.90
2023-02-25T07:10:48.929Z,64.19
2023-02-25T07:13:15.835Z,63.75
2023-02-25T07:15:42.919Z,62.91
2023-02-25T07:18:10.097Z,62.82
2023-02-25T07:20:39.808Z,63.30
2023-02-25T07:23:06.712Z,62.92
2023-02-25T07:25:34.621Z,62.53
2023-02-25T07:28:01.525Z,63.38
2023-02-25T07:30:28.533Z,63.27
2023-02-25T07:32:55.662Z,63.37
2023-02-25T07:35:22.680Z,63.22
2023-02-25T07:37:49.607Z,63.20
2023-02-25T07:40:17.666Z,62.87
2023-02-25T07:42:46.099Z,62.63
2023-02-25T07:45:13.153Z,62.84
2023-02-25T07:47:40.518Z,63.45
2023-02-25T07:50:11.702Z,63.46
2023-02-25T07:52:40.343Z,64.14
2023-02-25T07:55:07.697Z,63.07
2023-02-25T07:57:35.856Z,63.30
2023-02-25T08:00:07.003Z,63.42
2023-02-25T08:02:40.170Z,63.54
2023-02-25T08:05:07.737Z,63.26
2023-02-25T08:07:35.043Z,62.91
2023-02-25T08:10:01.994Z,63.57
2023-02-25T08:12:28.960Z,62.91
2023-02-25T08:14:57.609Z,62.58
2023-02-25T08:17:24.485Z,62.61
2023-02-25T08:19:52.357Z,62.80
2023-02-25T08:22:19.308Z,62.93
2023-02-25T08:24:46.225Z,62.53
2023-02-25T08:27:13.055Z,62.88
2023-02-25T08:29:40.007Z,62.33
2023-02-25T08:32:07.773Z,62.57
2023-02-25T08:34:35.363Z,62.30
2023-02-25T08:37:02.446Z,62.68
2023-02-25T08:39:29.525Z,62.29
2023-02-25T08:41:56.452Z,61.01
2023-02-25T08:44:23.496Z,61.52
2023-02-25T08:46:56.682Z,61.39
2023-02-25T08:49:23.945Z,61.38
2023-02-25T08:51:51.100Z,61.05
2023-02-25T08:54:18.053Z,60.59
2023-02-25T08:56:45.196Z,60.92
2023-02-25T08:59:15.392Z,60.11
2023-02-25T09:01:45.913Z,60.17
2023-02-25T09:04:16.664Z,60.49
2023-02-25T09:06:44.383Z,60.52
2023-02-25T09:09:12.542Z,60.48
2023-02-25T09:11:40.208Z,60.61
2023-02-25T09:14:07.485Z,60.54
2023-02-25T09:16:34.553Z,59.92
2023-02-25T09:19:02.498Z,59.92
2023-02-25T09:21:29.392Z,60.24
2023-02-25T09:23:56.396Z,59.70
2023-02-25T09:26:23.348Z,58.83
2023-02-25T09:28:50.525Z,61.47
2023-02-25T09:31:18.286Z,64.25
2023-02-25T09:33:45.534Z,64.00
2023-02-25T09:36:16.038Z,62.40
2023-02-25T09:38:44.761Z,60.81
2023-02-25T09:41:39.741Z,58.38
2023-02-25T09:44:30.512Z,59.65
2023-02-25T09:47:17.935Z,63.80
2023-02-25T09:49:56.878Z,62.69
2023-02-25T09:52:29.434Z,61.53
2023-02-25T09:55:04.186Z,58.46
2023-02-25T09:57:37.570Z,58.28
2023-02-25T10:00:10.177Z,60.73
2023-02-25T10:03:04.473Z,62.61
2023-02-25T10:05:48.486Z,63.73
2023-02-25T10:08:22.629Z,59.72
2023-02-25T10:10:55.685Z,57.45
2023-02-25T10:13:54.673Z,58.51
2023-02-25T10:16:41.954Z,58.08
2023-02-25T10:19:30.632Z,54.50
2023-02-25T10:22:17.558Z,51.60
2023-02-25T10:24:57.073Z,49.06
2023-02-25T10:27:33.950Z,49.61
2023-02-25T10:30:25.252Z,51.32
2023-02-25T10:32:53.399Z,53.04
2023-02-25T10:35:29.593Z,53.52
2023-02-25T10:37:56.436Z,56.10
2023-02-25T10:40:25.888Z,58.32
2023-02-25T10:42:55.324Z,60.38
2023-02-25T10:45:28.040Z,62.12
2023-02-25T10:48:16.476Z,60.57
2023-02-25T10:50:46.285Z,57.94
2023-02-25T10:53:18.647Z,58.30
2023-02-25T10:55:55.168Z,60.76
2023-02-25T10:58:34.799Z,61.33
2023-02-25T11:01:07.579Z,63.51
2023-02-25T11:03:44.003Z,60.84
2023-02-25T11:06:19.851Z,59.64
2023-02-25T11:08:47.648Z,62.42
2023-02-25T11:11:17.682Z,65.83
2023-02-25T11:13:45.027Z,66.14
2023-02-25T11:16:14.644Z,64.94
2023-02-25T11:18:42.301Z,63.49
2023-02-25T11:21:15.589Z,61.91
2023-02-25T11:23:42.492Z,60.25
2023-02-25T11:26:16.389Z,59.26
2023-02-25T11:28:49.522Z,61.98
2023-02-25T11:31:20.980Z,65.01
2023-02-25T11:34:30.945Z,64.40
2023-02-25T11:37:36.276Z,64.05
2023-02-25T11:40:25.114Z,61.36
2023-02-25T11:43:17.259Z,62.55
2023-02-25T11:46:00.617Z,60.76
2023-02-25T11:48:45.722Z,60.87
2023-02-25T11:51:19.127Z,60.51
2023-02-25T11:54:14.330Z,60.14
2023-02-25T11:56:48.796Z,57.53
2023-02-25T11:59:50.114Z,59.10
2023-02-25T12:02:38.207Z,63.16
2023-02-25T12:05:11.304Z,64.56
2023-02-25T12:08:15.812Z,62.44
2023-02-25T12:11:04.855Z,61.30
2023-02-25T12:13:54.429Z,59.59
2023-02-25T12:16:33.713Z,59.96
2023-02-25T12:19:41.341Z,63.96
2023-02-25T12:22:47.068Z,63.74
2023-02-25T12:25:29.267Z,61.67
2023-02-25T12:28:18.218Z,62.34
2023-02-25T12:31:03.881Z,61.52
2023-02-25T12:33:48.761Z,60.65
2023-02-25T12:36:43.745Z,60.20
2023-02-25T12:39:29.418Z,58.56
2023-02-25T12:42:18.480Z,59.28
2023-02-25T12:45:12.033Z,62.94
2023-02-25T12:47:51.061Z,65.22
2023-02-25T12:50:59.860Z,63.53
2023-02-25T12:53:48.508Z,61.51
2023-02-25T12:56:46.570Z,58.78
2023-02-25T12:59:44.225Z,58.24
2023-02-25T13:02:34.143Z,60.42
2023-02-25T13:05:16.290Z,63.01
2023-02-25T13:08:08.011Z,60.66
2023-02-25T13:10:43.970Z,60.05
2023-02-25T13:13:20.223Z,60.81
2023-02-25T13:16:00.787Z,61.77
2023-02-25T13:19:07.240Z,63.11
2023-02-25T13:22:00.591Z,62.93
2023-02-25T13:25:12.778Z,61.56
2023-02-25T13:28:01.218Z,61.95
2023-02-25T13:30:58.315Z,60.53
2023-02-25T13:33:38.513Z,60.19
2023-02-25T13:36:37.081Z,59.57
2023-02-25T13:39:12.892Z,59.02
2023-02-25T13:42:13.659Z,61.32
2023-02-25T13:45:02.301Z,65.42
2023-02-25T13:47:47.881Z,65.09
2023-02-25T13:50:40.001Z,62.97
2023-02-25T13:53:15.950Z,61.52
2023-02-25T13:55:55.136Z,61.20
2023-02-25T13:58:54.458Z,60.54
2023-02-25T14:01:43.262Z,59.73
2023-02-25T14:04:35.342Z,63.73
2023-02-25T14:07:20.917Z,65.29
2023-02-25T14:09:50.428Z,64.97
2023-02-25T14:12:44.607Z,63.76
2023-02-25T14:15:20.661Z,63.73
2023-02-25T14:17:50.685Z,63.70
2023-02-25T14:20:26.862Z,63.10
2023-02-25T14:23:12.013Z,62.08
2023-02-25T14:25:58.435Z,62.53
2023-02-25T14:28:52.160Z,60.69
2023-02-25T14:31:44.934Z,58.63
2023-02-25T14:34:46.238Z,59.21
2023-02-25T14:37:50.941Z,60.93
2023-02-25T14:40:36.315Z,64.42
2023-02-25T14:43:15.243Z,62.11
2023-02-25T14:45:48.548Z,60.20
2023-02-25T14:48:40.055Z,58.95
2023-02-25T14:51:46.244Z,59.00
2023-02-25T14:54:31.861Z,61.46
2023-02-25T14:57:17.490Z,64.51
2023-02-25T15:00:00.963Z,62.48
2023-02-25T15:02:40.285Z,61.43
2023-02-25T15:05:09.809Z,61.16
2023-02-25T15:08:07.880Z,59.99
2023-02-25T15:10:38.413Z,60.77
2023-02-25T15:13:42.698Z,59.82
2023-02-25T15:16:47.616Z,59.21
2023-02-25T15:19:52.054Z,60.26
2023-02-25T15:22:24.078Z,64.79
2023-02-25T15:25:15.207Z,65.51
2023-02-25T15:27:47.359Z,65.00
2023-02-25T15:30:21.033Z,64.98
2023-02-25T15:32:59.996Z,64.28
2023-02-25T15:35:36.155Z,63.85
2023-02-25T15:38:19.729Z,63.11
2023-02-25T15:40:52.121Z,62.28
2023-02-25T15:43:19.094Z,62.29
2023-02-25T15:45:49.440Z,62.30
2023-02-25T15:48:22.321Z,62.41
2023-02-25T15:50:49.195Z,62.49
2023-02-25T15:53:23.438Z,62.66
2023-02-25T15:56:13.571Z,62.74
2023-02-25T15:58:53.513Z,63.08
2023-02-25T16:01:23.420Z,63.47
2023-02-25T16:03:52.232Z,62.62
2023-02-25T16:06:41.584Z,61.47
2023-02-25T16:09:18.189Z,61.45
2023-02-25T16:11:59.130Z,61.94
2023-02-25T16:14:30.377Z,63.71
2023-02-25T16:17:20.251Z,63.49
2023-02-25T16:19:50.790Z,63.45
2023-02-25T16:22:28.486Z,63.83
2023-02-25T16:24:58.606Z,63.73
2023-02-25T16:27:53.898Z,63.45
2023-02-25T16:30:46.495Z,63.74
2023-02-25T16:33:22.901Z,63.46
2023-02-25T16:36:06.955Z,63.13
2023-02-25T16:39:21.885Z,62.82
2023-02-25T16:41:48.934Z,62.68
2023-02-25T16:44:40.056Z,62.86
2023-02-25T16:47:22.032Z,62.62
2023-02-25T16:49:50.333Z,62.77
2023-02-25T16:52:34.185Z,63.28
2023-02-25T16:55:11.432Z,63.86
2023-02-25T16:57:39.517Z,64.10
2023-02-25T17:00:18.057Z,63.50
2023-02-25T17:02:48.651Z,61.90
2023-02-25T17:05:25.511Z,61.40
2023-02-25T17:07:58.945Z,61.34
2023-02-25T17:10:48.849Z,60.91
2023-02-25T17:13:28.921Z,60.74
2023-02-25T17:15:56.526Z,60.26
2023-02-25T17:18:41.923Z,59.95
2023-02-25T17:21:15.897Z,58.46
2023-02-25T17:23:44.751Z,60.02
2023-02-25T17:26:16.247Z,63.33
2023-02-25T17:28:45.786Z,65.29
2023-02-25T17:31:18.568Z,64.64
2023-02-25T17:33:53.171Z,63.76
2023-02-25T17:36:27.192Z,63.36
2023-02-25T17:39:04.269Z,62.89
2023-02-25T17:41:31.420Z,62.70
2023-02-25T17:43:58.462Z,62.48
2023-02-25T17:46:38.456Z,62.63
2023-02-25T17:49:18.757Z,62.64
2023-02-25T17:51:46.770Z,62.60
2023-02-25T17:54:20.257Z,62.56
2023-02-25T17:56:59.798Z,62.79
2023-02-25T17:59:35.851Z,62.97
2023-02-25T18:02:23.934Z,62.79
2023-02-25T18:04:51.212Z,62.64
2023-02-25T18:07:24.234Z,62.64
2023-02-25T18:09:51.526Z,62.63
2023-02-25T18:12:39.079Z,61.97
2023-02-25T18:15:17.363Z,60.45
2023-02-25T18:17:50.725Z,60.77
2023-02-25T18:20:36.732Z,61.13
2023-02-25T18:23:06.502Z,61.29
2023-02-25T18:25:33.373Z,62.25
2023-02-25T18:28:01.583Z,64.16
2023-02-25T18:30:30.959Z,63.30
2023-02-25T18:32:59.365Z,61.23
2023-02-25T18:35:28.358Z,60.53
2023-02-25T18:37:58.094Z,60.43
2023-02-25T18:40:29.834Z,60.86
2023-02-25T18:42:58.185Z,60.44
2023-02-25T18:45:27.104Z,60.67
2023-02-25T18:47:55.182Z,61.24
2023-02-25T18:50:23.859Z,61.99
2023-02-25T18:52:50.853Z,62.13
2023-02-25T18:55:25.120Z,62.39
2023-02-25T18:57:52.394Z,61.44
2023-02-25T19:00:22.458Z,61.31
2023-02-25T19:02:53.415Z,60.63
2023-02-25T19:05:23.073Z,61.20
2023-02-25T19:07:51.805Z,62.55
2023-02-25T19:10:25.121Z,62.72
2023-02-25T19:12:59.247Z,63.00
2023-02-25T19:15:26.305Z,62.17
2023-02-25T19:17:53.558Z,62.60
2023-02-25T19:20:21.133Z,64.70
2023-02-25T19:22:53.076Z,64.39
2023-02-25T19:25:29.800Z,60.14
2023-02-25T19:27:58.144Z,57.44
2023-02-25T19:30:35.203Z,55.38
2023-02-25T19:33:05.019Z,55.65
2023-02-25T19:35:34.289Z,58.80
2023-02-25T19:38:02.068Z,59.98
2023-02-25T19:40:30.191Z,64.27
2023-02-25T19:42:58.279Z,64.97
2023-02-25T19:45:26.439Z,62.55
2023-02-25T19:47:54.990Z,61.08
2023-02-25T19:50:25.982Z,60.33
2023-02-25T19:52:54.510Z,60.19
2023-02-25T19:55:21.720Z,59.50
2023-02-25T19:57:48.894Z,61.83
2023-02-25T20:00:20.174Z,64.13
2023-02-25T20:02:47.426Z,64.61
2023-02-25T20:05:14.958Z,63.01
2023-02-25T20:07:43.463Z,62.14
2023-02-25T20:10:13.138Z,61.45
2023-02-25T20:12:45.225Z,61.55
2023-02-25T20:15:13.811Z,61.51
2023-02-25T20:17:42.750Z,60.68
2023-02-25T20:20:11.103Z,60.12
2023-02-25T20:22:39.559Z,63.13
2023-02-25T20:25:08.162Z,63.02
2023-02-25T20:27:37.256Z,63.01
2023-02-25T20:30:06.965Z,58.39
2023-02-25T20:32:35.054Z,57.99
2023-02-25T20:35:02.513Z,61.23
2023-02-25T20:37:33.846Z,64.11
2023-02-25T20:40:01.324Z,64.85
2023-02-25T20:42:31.229Z,64.09
2023-02-25T20:44:59.724Z,63.40
2023-02-25T20:47:29.544Z,61.75
2023-02-25T20:49:58.647Z,62.32
2023-02-25T20:52:29.375Z,66.55
2023-02-25T20:54:56.723Z,67.82
2023-02-25T20:57:25.720Z,62.90
2023-02-25T20:59:54.495Z,57.20
2023-02-25T21:02:22.496Z,53.74
2023-02-25T21:04:50.596Z,54.62
2023-02-25T21:07:17.845Z,55.49
2023-02-25T21:09:45.124Z,53.58
2023-02-25T21:12:12.348Z,53.81
2023-02-25T21:14:39.339Z,52.35
2023-02-25T21:17:09.788Z,51.41
2023-02-25T21:19:38.938Z,49.60
2023-02-25T21:22:07.318Z,49.96
2023-02-25T21:24:34.909Z,48.92
2023-02-25T21:27:02.662Z,47.49
2023-02-25T21:29:29.702Z,47.91
2023-02-25T21:31:57.008Z,50.40
2023-02-25T21:34:24.321Z,52.40
2023-02-25T21:36:54.742Z,55.01
2023-02-25T21:39:22.035Z,56.99
2023-02-25T21:41:49.263Z,59.65
2023-02-25T21:44:18.351Z,60.41
2023-02-25T21:46:45.250Z,62.75
2023-02-25T21:49:12.359Z,61.13
2023-02-25T21:51:40.446Z,59.80
2023-02-25T21:54:08.415Z,57.63
2023-02-25T21:56:35.365Z,59.27
2023-02-25T21:59:05.717Z,62.15
2023-02-25T22:01:38.838Z,65.02
2023-02-25T22:04:07.141Z,63.11
2023-02-25T22:06:34.730Z,61.35
2023-02-25T22:09:02.296Z,59.84
2023-02-25T22:11:32.134Z,58.81
2023-02-25T22:14:01.248Z,59.25
2023-02-25T22:16:29.073Z,62.08
2023-02-25T22:18:57.566Z,64.23
2023-02-25T22:21:30.154Z,64.62
2023-02-25T22:24:00.161Z,61.87
2023-02-25T22:26:28.639Z,60.61
2023-02-25T22:28:57.874Z,60.48
2023-02-25T22:31:25.682Z,58.50
2023-02-25T22:33:53.729Z,59.27
2023-02-25T22:36:20.742Z,63.08
2023-02-25T22:38:48.790Z,64.64
2023-02-25T22:41:19.599Z,62.73
2023-02-25T22:43:47.788Z,60.37
2023-02-25T22:46:18.310Z,60.55
2023-02-25T22:48:46.969Z,59.79
2023-02-25T22:51:19.617Z,61.26
2023-02-25T22:53:46.890Z,63.94
2023-02-25T22:56:13.957Z,65.05
2023-02-25T22:58:41.140Z,63.65
2023-02-25T23:01:09.845Z,62.83
2023-02-25T23:03:38.738Z,62.17
2023-02-25T23:06:06.849Z,61.38
2023-02-25T23:19:41.142Z,58.33
2023-02-25T23:22:11.116Z,60.20
2023-02-25T23:24:38.118Z,64.27
2023-02-25T23:27:05.160Z,65.63
2023-02-25T23:29:32.730Z,64.64
2023-02-25T23:31:59.742Z,63.49
2023-02-25T23:34:26.946Z,62.86
2023-02-25T23:36:57.591Z,61.93
2023-02-25T23:39:25.135Z,61.55
2023-02-25T23:41:52.093Z,60.99
2023-02-25T23:44:19.037Z,60.36
2023-02-25T23:46:46.188Z,59.58
2023-02-25T23:49:14.986Z,59.35
2023-02-25T23:51:44.687Z,61.12
2023-02-25T23:54:14.995Z,64.99
2023-02-25T23:56:41.973Z,65.49
2023-02-25T23:59:10.667Z,63.97
